Time;durP1;ratioP1;P1;durP2;ratioP2;P2;SDS_P1;SDS_P2;PMS_P1;PMS_P2;Temp;Humidity;BMP_temperature;BMP_pressure;BME280_temperature;BME280_humidity;BME280_pressure;Samples;Min_cycle;Max_cycle;Signal;HPM_P1;HPM_P2
2022/10/30 00:02:21;;;;;;;19.33;7.13;;;;;;;14.13;100.00;101413.66;10544661;28;20706;-80
2022/10/30 00:07:22;;;;;;;15.35;7.53;;;;;;;13.86;100.00;101416.66;10541893;28;20056;-80
2022/10/30 00:12:24;;;;;;;16.80;7.25;;;;;;;13.75;100.00;101418.94;10543552;28;20043;-80
2022/10/30 00:17:27;;;;;;;;;;;;;;;13.65;100.00;101416.75;10543357;28;20157;-79
2022/10/30 00:22:29;;;;;;;11.93;7.20;;;;;;;13.46;100.00;101418.50;10543438;28;19928;-81
2022/10/30 00:27:31;;;;;;;21.48;8.43;;;;;;;13.39;100.00;101424.00;10543304;28;20476;-81
2022/10/30 00:32:34;;;;;;;18.50;6.85;;;;;;;13.70;100.00;101407.84;10541144;28;20051;-79
2022/10/30 00:37:36;;;;;;;15.48;7.00;;;;;;;13.59;100.00;101408.34;10540545;28;20812;-79
2022/10/30 00:42:38;;;;;;;14.15;6.43;;;;;;;13.56;100.00;101409.34;10542065;28;20058;-82
2022/10/30 00:47:46;;;;;;;15.10;7.57;;;;;;;13.38;100.00;101403.97;10541411;28;20062;-81
2022/10/30 00:52:54;;;;;;;10.80;7.03;;;;;;;13.34;100.00;101404.19;10541823;28;20488;-79
2022/10/30 00:57:59;;;;;;;15.90;7.10;;;;;;;13.10;100.00;101402.59;10541462;28;20081;-81
2022/10/30 01:03:03;;;;;;;21.08;7.70;;;;;;;12.83;100.00;101404.66;10541148;28;20495;-81
2022/10/30 01:08:06;;;;;;;16.50;6.75;;;;;;;12.64;100.00;101405.44;10540478;28;20058;-82
2022/10/30 01:13:07;;;;;;;17.63;7.95;;;;;;;12.48;100.00;101410.44;10540769;28;20514;-80
2022/10/30 01:18:28;;;;;;;;;;;;;;;12.45;100.00;101418.41;10541868;28;20085;-80
2022/10/30 01:23:47;;;;;;;16.35;7.15;;;;;;;12.32;100.00;101413.69;10540535;28;19924;-80
2022/10/30 01:29:25;;;;;;;19.63;7.70;;;;;;;12.16;100.00;101415.22;10540394;28;20056;-80
2022/10/30 01:34:42;;;;;;;13.23;7.03;;;;;;;12.15;100.00;101410.91;10540652;28;20048;-80
2022/10/30 01:39:47;;;;;;;19.83;8.18;;;;;;;12.00;100.00;101421.03;10539511;28;20077;-80
2022/10/30 01:44:49;;;;;;;14.75;7.40;;;;;;;11.99;100.00;101421.97;10540378;28;20059;-80
2022/10/30 01:50:16;;;;;;;13.85;7.82;;;;;;;11.94;100.00;101421.28;10539883;28;20055;-80
2022/10/30 01:55:37;;;;;;;20.80;7.60;;;;;;;11.85;100.00;101418.09;10539565;28;20056;-81
2022/10/30 02:00:44;;;;;;;15.98;7.88;;;;;;;11.85;100.00;101425.94;10547813;28;20052;-81
2022/10/30 02:05:50;;;;;;;16.85;8.10;;;;;;;11.75;100.00;101432.44;10548684;28;20107;-81
2022/10/30 02:10:55;;;;;;;16.20;8.80;;;;;;;11.90;100.00;101430.16;10546528;28;20594;-80
2022/10/30 02:16:00;;;;;;;14.18;7.90;;;;;;;12.04;100.00;101432.25;10535191;28;20583;-79
2022/10/30 02:21:03;;;;;;;17.83;7.50;;;;;;;12.15;100.00;101429.22;10519474;28;20048;-80
2022/10/30 02:26:06;;;;;;;14.07;7.47;;;;;;;12.13;100.00;101436.28;10507907;28;20060;-83
2022/10/30 02:31:07;;;;;;;15.98;7.93;;;;;;;11.99;100.00;101448.13;10519450;28;20055;-80
2022/10/30 02:36:10;;;;;;;16.63;7.72;;;;;;;12.05;100.00;101440.00;10504213;28;20058;-80
2022/10/30 02:41:13;;;;;;;15.32;7.95;;;;;;;12.16;100.00;101444.00;10503330;28;20052;-84
2022/10/30 02:46:14;;;;;;;14.38;8.82;;;;;;;12.22;100.00;101451.63;10504318;28;20055;-80
2022/10/30 02:51:17;;;;;;;14.93;8.35;;;;;;;12.20;100.00;101453.44;10505022;28;20089;-79
2022/10/30 02:56:19;;;;;;;17.30;8.00;;;;;;;12.09;100.00;101446.88;10505067;28;20083;-79
2022/10/30 03:01:21;;;;;;;15.88;8.35;;;;;;;12.01;100.00;101445.44;10504205;28;20048;-80
2022/10/30 03:06:24;;;;;;;15.10;8.45;;;;;;;11.90;100.00;101440.63;10505052;28;20052;-79
2022/10/30 03:11:27;;;;;;;20.02;8.82;;;;;;;11.87;100.00;101433.72;10502475;28;20101;-81
2022/10/30 03:16:29;;;;;;;16.25;8.48;;;;;;;11.81;100.00;101431.38;10504039;28;20059;-80
2022/10/30 03:21:32;;;;;;;16.10;7.93;;;;;;;11.92;100.00;101428.34;10504016;28;20063;-80
2022/10/30 03:26:34;;;;;;;18.38;7.72;;;;;;;11.90;100.00;101427.56;10503336;28;20127;-79
2022/10/30 03:31:39;;;;;;;20.98;8.30;;;;;;;11.77;100.00;101429.78;10503685;28;20045;-83
2022/10/30 03:36:42;;;;;;;15.60;7.97;;;;;;;11.92;100.00;101423.97;10503141;28;20113;-81
2022/10/30 03:41:44;;;;;;;23.20;9.05;;;;;;;11.92;100.00;101433.56;10501391;28;20041;-82
2022/10/30 03:46:46;;;;;;;17.60;8.85;;;;;;;11.90;100.00;101430.16;10502528;28;20446;-79
2022/10/30 03:51:51;;;;;;;17.35;8.23;;;;;;;11.88;100.00;101432.84;10502067;28;20098;-80
2022/10/30 03:56:54;;;;;;;18.48;8.52;;;;;;;11.83;100.00;101437.38;10501918;28;20640;-80
2022/10/30 04:01:56;;;;;;;15.18;8.10;;;;;;;11.98;100.00;101438.56;10501552;28;20492;-80
2022/10/30 04:06:59;;;;;;;16.90;8.40;;;;;;;12.04;100.00;101443.53;10501888;28;20099;-81
2022/10/30 04:12:01;;;;;;;16.80;8.77;;;;;;;12.03;100.00;101439.22;10500486;28;20459;-82
2022/10/30 04:17:04;;;;;;;19.05;8.95;;;;;;;12.02;100.00;101448.00;10501045;28;20106;-81
2022/10/30 04:22:08;;;;;;;17.25;8.68;;;;;;;11.93;100.00;101440.50;10500336;28;20424;-80
2022/10/30 04:27:09;;;;;;;19.98;8.68;;;;;;;11.96;100.00;101440.38;10500108;28;20117;-80
2022/10/30 04:32:11;;;;;;;16.95;8.60;;;;;;;11.77;100.00;101446.31;10500206;28;20051;-79
2022/10/30 04:37:14;;;;;;;18.23;8.98;;;;;;;11.65;100.00;101446.78;10499836;28;20051;-80
2022/10/30 04:42:16;;;;;;;18.70;8.38;;;;;;;11.51;100.00;101435.06;10499629;28;20060;-80
2022/10/30 04:47:18;;;;;;;13.80;7.97;;;;;;;11.44;100.00;101429.22;10500053;28;20102;-81
2022/10/30 04:52:27;;;;;;;15.07;8.80;;;;;;;11.37;100.00;101427.75;10499653;28;20562;-78
2022/10/30 04:57:30;;;;;;;19.98;9.15;;;;;;;11.33;100.00;101408.69;10499412;28;20481;-81
2022/10/30 05:02:31;;;;;;;16.23;8.55;;;;;;;11.35;100.00;101397.34;10498779;28;20048;-79
2022/10/30 05:07:35;;;;;;;16.02;9.13;;;;;;;11.45;100.00;101409.16;10498012;28;20775;-79
2022/10/30 05:12:36;;;;;;;19.02;9.02;;;;;;;11.43;100.00;101413.59;10498825;28;20416;-80
2022/10/30 05:17:39;;;;;;;16.42;9.10;;;;;;;11.33;100.00;101408.69;10499180;28;20053;-79
2022/10/30 05:22:42;;;;;;;17.10;8.55;;;;;;;11.32;100.00;101400.91;10498626;28;20504;-79
2022/10/30 05:27:43;;;;;;;18.00;8.63;;;;;;;11.23;100.00;101415.19;10498275;28;20059;-81
2022/10/30 05:32:45;;;;;;;26.33;9.88;;;;;;;11.05;100.00;101412.31;10498868;28;20053;-79
2022/10/30 05:37:48;;;;;;;19.35;8.65;;;;;;;11.00;100.00;101419.47;10498671;28;20067;-80
2022/10/30 05:42:51;;;;;;;19.27;9.40;;;;;;;10.97;100.00;101414.34;10504860;28;20105;-79
2022/10/30 05:47:57;;;;;;;16.83;8.57;;;;;;;10.80;100.00;101407.09;10503264;28;20049;-79
2022/10/30 05:53:03;;;;;;;21.77;9.05;;;;;;;10.80;100.00;101427.97;10502078;28;20097;-78
2022/10/30 05:58:06;;;;;;;18.70;9.10;;;;;;;10.53;100.00;101423.63;10499145;28;20098;-79
2022/10/30 06:03:12;;;;;;;17.42;9.10;;;;;;;10.39;100.00;101408.41;10503176;28;20082;-79
2022/10/30 06:08:16;;;;;;;14.95;9.02;;;;;;;10.28;100.00;101416.56;10501310;28;20045;-81
2022/10/30 06:13:18;;;;;;;19.67;8.85;;;;;;;10.16;100.00;101416.94;10498747;28;20045;-78
2022/10/30 06:18:22;;;;;;;22.92;9.30;;;;;;;10.29;100.00;101420.88;10496993;28;20067;-78
2022/10/30 06:23:25;;;;;;;23.98;9.32;;;;;;;10.11;100.00;101421.47;10497496;28;20071;-77
2022/10/30 06:28:27;;;;;;;19.75;9.27;;;;;;;10.29;100.00;101415.66;10498702;28;20519;-77
2022/10/30 06:33:29;;;;;;;20.38;9.10;;;;;;;10.34;100.00;101406.84;10499576;28;20040;-78
2022/10/30 06:38:37;;;;;;;14.07;9.15;;;;;;;10.12;100.00;101415.34;10496557;28;20048;-77
2022/10/30 06:43:39;;;;;;;22.70;9.82;;;;;;;10.00;100.00;101412.25;10501481;28;20073;-77
2022/10/30 06:48:56;;;;;;;23.50;10.35;;;;;;;9.98;100.00;101411.41;10522238;28;20071;-79
2022/10/30 06:53:59;;;;;;;19.83;10.43;;;;;;;9.94;100.00;101412.41;10505130;28;20098;-77
2022/10/30 06:59:01;;;;;;;19.70;10.43;;;;;;;10.04;100.00;101407.75;10504255;28;20053;-80
2022/10/30 07:04:03;;;;;;;28.48;10.27;;;;;;;10.08;100.00;101405.91;10504689;28;20045;-80
2022/10/30 07:09:06;;;;;;;16.63;10.20;;;;;;;10.16;100.00;101396.06;10503522;28;20070;-78
2022/10/30 07:14:08;;;;;;;24.85;10.80;;;;;;;10.36;100.00;101391.97;10503974;28;20484;-79
2022/10/30 07:19:10;;;;;;;29.88;11.48;;;;;;;10.46;100.00;101400.38;10505023;28;20094;-77
2022/10/30 07:24:13;;;;;;;22.30;11.13;;;;;;;10.59;100.00;101399.09;10530095;28;20056;-78
2022/10/30 07:29:15;;;;;;;17.65;10.43;;;;;;;10.70;100.00;101398.72;10546453;28;20056;-79
2022/10/30 07:34:17;;;;;;;23.63;10.52;;;;;;;10.94;100.00;101398.78;10545089;28;20047;-78
2022/10/30 07:39:20;;;;;;;21.58;11.05;;;;;;;11.15;100.00;101401.56;10543340;28;20048;-80
2022/10/30 07:44:22;;;;;;;25.40;11.13;;;;;;;11.32;100.00;101409.63;10544770;28;20473;-80
2022/10/30 07:49:24;;;;;;;18.23;10.75;;;;;;;11.54;100.00;101398.38;10523924;28;20048;-80
2022/10/30 07:54:27;;;;;;;20.70;10.85;;;;;;;11.73;100.00;101397.66;10502120;28;20443;-79
2022/10/30 07:59:29;;;;;;;17.20;10.68;;;;;;;12.02;100.00;101398.31;10502549;28;20094;-80
2022/10/30 08:05:04;;;;;;;20.85;10.93;;;;;;;13.50;100.00;101393.88;10501974;28;20090;-77
2022/10/30 08:10:09;;;;;;;16.13;8.93;;;;;;;15.44;100.00;101396.53;10500991;28;20049;-79
2022/10/30 08:15:11;;;;;;;17.30;8.30;;;;;;;15.87;100.00;101397.75;10501825;28;20045;-78
2022/10/30 08:20:15;;;;;;;15.85;7.57;;;;;;;15.24;100.00;101394.16;10501137;28;20049;-78
2022/10/30 08:25:21;;;;;;;15.70;7.63;;;;;;;15.70;100.00;101381.13;10501073;28;20056;-79
2022/10/30 08:30:24;;;;;;;14.30;7.78;;;;;;;15.42;100.00;101387.91;10501960;28;20053;-79
2022/10/30 08:35:26;;;;;;;14.25;7.00;;;;;;;15.99;100.00;101412.03;10500466;28;20048;-81
2022/10/30 08:40:29;;;;;;;17.17;6.95;;;;;;;16.19;97.75;101410.88;10498300;28;20053;-80
2022/10/30 08:45:31;;;;;;;14.98;6.93;;;;;;;16.69;97.37;101400.13;10499623;28;20048;-81
2022/10/30 08:50:33;;;;;;;;;;;;;;;16.45;100.00;101400.63;10499887;28;20580;-79
2022/10/30 08:55:37;;;;;;;13.30;5.68;;;;;;;17.71;100.00;101400.13;10499888;28;20371;-79
2022/10/30 09:00:38;;;;;;;12.82;6.40;;;;;;;18.83;99.19;101404.31;10500051;28;20052;-81
2022/10/30 09:05:40;;;;;;;15.80;6.22;;;;;;;19.12;98.02;101399.66;10498832;28;20047;-80
2022/10/30 09:10:43;;;;;;;9.95;6.22;;;;;;;18.43;84.38;101398.16;10497426;28;20056;-83
2022/10/30 09:15:45;;;;;;;11.68;5.97;;;;;;;19.29;80.15;101395.84;10499168;28;20049;-80
2022/10/30 09:20:51;;;;;;;12.45;5.60;;;;;;;20.72;84.32;101396.97;10498699;28;20056;-81
2022/10/30 09:25:57;;;;;;;10.93;5.78;;;;;;;20.25;86.50;101379.25;10497582;28;20048;-81
2022/10/30 09:31:01;;;;;;;11.00;5.30;;;;;;;19.23;93.84;101380.38;10497958;28;20049;-77
2022/10/30 09:36:05;;;;;;;15.75;5.95;;;;;;;20.65;88.44;101388.66;10497936;28;20056;-78
2022/10/30 09:41:37;;;;;;;13.00;6.22;;;;;;;19.86;79.85;101386.53;10496553;28;20107;-80
2022/10/30 09:47:08;;;;;;;12.63;5.55;;;;;;;19.27;80.86;101392.44;10497832;28;20476;-79
2022/10/30 09:52:30;;;;;;;14.70;5.78;;;;;;;19.01;84.89;101410.97;10497261;28;20411;-78
2022/10/30 09:57:47;;;;;;;14.10;5.85;;;;;;;18.96;89.34;101418.41;10497461;28;20143;-81
2022/10/30 10:03:17;;;;;;;16.17;5.60;;;;;;;18.78;87.88;101413.41;10496689;28;20041;-80
2022/10/30 10:08:29;;;;;;;18.67;6.47;;;;;;;18.86;90.93;101419.97;10495556;28;20114;-80
2022/10/30 10:13:45;;;;;;;15.40;6.13;;;;;;;18.77;84.44;101406.44;10497353;28;20372;-76
2022/10/30 10:18:51;;;;;;;12.75;5.75;;;;;;;19.82;83.14;101401.81;10511830;28;20058;-80
2022/10/30 10:23:56;;;;;;;13.80;5.85;;;;;;;20.31;78.48;101407.09;10546918;28;20048;-80
2022/10/30 10:29:40;;;;;;;15.73;5.97;;;;;;;21.23;78.89;101400.16;10545678;28;20109;-78
2022/10/30 10:35:04;;;;;;;11.50;5.57;;;;;;;20.71;74.53;101400.59;10545600;28;20507;-79
2022/10/30 10:40:40;;;;;;;14.13;6.28;;;;;;;20.20;76.76;101394.69;10544610;28;20082;-82
2022/10/30 10:45:59;;;;;;;15.70;5.40;;;;;;;21.71;72.85;101384.84;10546479;28;20138;-80
2022/10/30 10:51:07;;;;;;;15.20;5.75;;;;;;;21.47;73.49;101393.84;10546426;28;20063;-79
2022/10/30 10:56:11;;;;;;;13.95;6.05;;;;;;;21.80;79.76;101389.47;10546376;28;20101;-80
2022/10/30 11:01:22;;;;;;;14.98;5.80;;;;;;;22.51;71.50;101397.78;10545172;28;20074;-79
2022/10/30 11:06:28;;;;;;;15.98;6.03;;;;;;;22.33;68.89;101398.38;10545483;28;20055;-81
2022/10/30 11:11:40;;;;;;;10.90;5.40;;;;;;;22.58;65.88;101393.66;10542715;28;20052;-81
2022/10/30 11:17:01;;;;;;;12.00;5.68;;;;;;;23.05;66.48;101379.06;10544904;28;20131;-80
2022/10/30 11:22:18;;;;;;;13.40;5.50;;;;;;;21.86;74.98;101382.75;10544274;28;20070;-79
2022/10/30 11:27:29;;;;;;;14.82;5.38;;;;;;;22.35;73.12;101367.19;10544237;28;20502;-80
2022/10/30 11:32:34;;;;;;;13.40;5.25;;;;;;;22.10;74.68;101374.59;10543147;28;20052;-80
2022/10/30 11:37:39;;;;;;;13.80;5.53;;;;;;;22.27;69.15;101379.47;10540438;28;20102;-81
2022/10/30 11:42:45;;;;;;;15.55;5.20;;;;;;;21.05;70.98;101384.72;10541405;28;20389;-79
2022/10/30 11:47:48;;;;;;;10.85;5.35;;;;;;;21.21;77.58;101364.91;10544990;28;20058;-77
2022/10/30 11:52:57;;;;;;;14.55;5.28;;;;;;;20.22;77.48;101371.53;10550974;28;20048;-78
2022/10/30 11:57:59;;;;;;;14.55;6.35;;;;;;;20.31;78.00;101367.34;10540731;28;20048;-82
2022/10/30 12:03:03;;;;;;;13.00;5.65;;;;;;;20.62;76.21;101366.81;10541325;28;20066;-81
2022/10/30 12:08:21;;;;;;;11.68;5.07;;;;;;;20.35;74.92;101370.63;10538113;28;20123;-79
2022/10/30 12:13:27;;;;;;;10.82;5.13;;;;;;;20.18;78.72;101364.78;10540417;28;20055;-80
2022/10/30 12:18:32;;;;;;;12.50;5.20;;;;;;;19.64;78.06;101359.00;10540530;28;20068;-75
2022/10/30 12:23:35;;;;;;;14.80;5.68;;;;;;;19.25;81.73;101345.88;10539792;28;20103;-74
2022/10/30 12:28:39;;;;;;;10.68;5.30;;;;;;;19.30;82.95;101349.91;10539657;28;20050;-78
2022/10/30 12:33:49;;;;;;;17.08;5.70;;;;;;;19.51;82.24;101351.13;10539985;28;20044;-78
2022/10/30 12:38:58;;;;;;;13.40;5.57;;;;;;;19.49;81.89;101343.28;10537002;28;20048;-77
2022/10/30 12:44:13;;;;;;;10.65;5.18;;;;;;;19.76;81.72;101344.88;10539472;28;20056;-79
2022/10/30 12:49:26;;;;;;;14.43;5.32;;;;;;;19.99;80.00;101345.00;10538719;28;20535;-76
2022/10/30 12:54:37;;;;;;;11.63;5.13;;;;;;;20.40;78.31;101348.13;10539051;28;20583;-74
2022/10/30 12:59:53;;;;;;;21.27;5.80;;;;;;;20.48;77.85;101344.00;10539006;28;20055;-77
2022/10/30 13:05:02;;;;;;;13.88;5.40;;;;;;;20.70;77.99;101340.56;10538368;28;20055;-72
2022/10/30 13:10:25;;;;;;;15.48;5.35;;;;;;;20.72;73.90;101330.66;10535566;28;20052;-78
2022/10/30 13:15:33;;;;;;;14.70;4.53;;;;;;;21.02;74.37;101329.25;10538220;28;20101;-77
2022/10/30 13:20:36;;;;;;;14.38;4.78;;;;;;;20.53;73.27;101326.78;10537883;28;20086;-78
2022/10/30 13:25:51;;;;;;;11.65;4.38;;;;;;;19.88;75.40;101332.50;10537690;28;20052;-81
2022/10/30 13:31:08;;;;;;;9.73;4.38;;;;;;;19.93;75.09;101329.53;10537837;28;20492;-77
2022/10/30 13:36:21;;;;;;;18.20;5.47;;;;;;;20.03;74.39;101335.84;10537628;28;20085;-76
2022/10/30 13:41:36;;;;;;;13.90;4.53;;;;;;;19.78;75.83;101335.00;10535808;28;20055;-78
2022/10/30 13:47:05;;;;;;;14.18;4.60;;;;;;;19.53;76.07;101343.88;10537581;28;20491;-74
2022/10/30 13:52:14;;;;;;;14.07;4.10;;;;;;;19.25;77.36;101336.16;10537724;28;20069;-77
2022/10/30 13:57:27;;;;;;;15.52;4.43;;;;;;;19.29;77.61;101337.63;10546334;28;20079;-78
2022/10/30 14:02:50;;;;;;;16.95;4.85;;;;;;;19.32;76.80;101325.97;10547174;28;20056;-80
2022/10/30 14:08:06;;;;;;;14.60;4.60;;;;;;;19.41;75.21;101324.47;10543775;28;20353;-77
2022/10/30 14:13:25;;;;;;;13.10;4.60;;;;;;;19.37;75.07;101333.59;10544856;28;20511;-78
2022/10/30 14:18:45;;;;;;;29.38;5.32;;;;;;;19.27;76.18;101339.53;10544890;28;20075;-78
2022/10/30 14:23:48;;;;;;;13.77;4.72;;;;;;;19.39;77.09;101344.91;10544718;28;20230;-77
2022/10/30 14:28:55;;;;;;;11.90;5.05;;;;;;;19.17;78.11;101352.56;10544620;28;20104;-78
2022/10/30 14:33:58;;;;;;;10.75;4.38;;;;;;;19.25;77.54;101354.69;10544588;28;20040;-78
2022/10/30 14:39:29;;;;;;;14.88;5.25;;;;;;;19.40;77.45;101343.97;10541663;28;20564;-80
2022/10/30 14:44:57;;;;;;;;;;;;;;;19.40;75.77;101349.25;10544603;28;20086;-80
2022/10/30 14:50:06;;;;;;;13.93;5.10;;;;;;;19.43;77.57;101343.72;10544384;28;19965;-79
2022/10/30 14:55:34;;;;;;;12.15;4.43;;;;;;;19.37;77.39;101346.81;10543803;28;20051;-78
2022/10/30 15:00:42;;;;;;;15.63;5.35;;;;;;;19.19;77.60;101363.03;10542653;28;20098;-77
2022/10/30 15:05:53;;;;;;;13.63;4.90;;;;;;;19.01;78.48;101363.38;10541632;28;20055;-77
2022/10/30 15:11:37;;;;;;;8.52;4.53;;;;;;;19.02;78.05;101373.00;10541487;28;20044;-76
2022/10/30 15:16:41;;;;;;;11.40;4.60;;;;;;;18.90;78.98;101379.13;10542030;28;20078;-74
2022/10/30 15:21:48;;;;;;;12.05;4.80;;;;;;;18.71;79.12;101379.59;10542584;28;20059;-75
2022/10/30 15:26:57;;;;;;;12.93;4.63;;;;;;;18.56;80.67;101390.25;10541476;28;20097;-77
2022/10/30 15:32:05;;;;;;;13.10;4.38;;;;;;;18.35;81.78;101395.19;10542446;28;20067;-79
2022/10/30 15:37:12;;;;;;;16.13;4.80;;;;;;;18.09;83.83;101406.53;10544122;28;20052;-77
2022/10/30 15:42:19;;;;;;;13.80;5.47;;;;;;;17.89;85.02;101418.34;10539885;28;20083;-77
2022/10/30 15:47:21;;;;;;;12.63;5.40;;;;;;;17.67;87.01;101427.66;10541772;28;20115;-77
2022/10/30 15:52:27;;;;;;;12.70;5.40;;;;;;;17.47;87.92;101442.09;10542352;28;20100;-75
2022/10/30 15:57:36;;;;;;;19.20;5.95;;;;;;;17.42;90.07;101455.59;10522801;28;20049;-74
2022/10/30 16:02:39;;;;;;;14.23;6.10;;;;;;;17.31;92.18;101461.50;10541712;28;20553;-74
2022/10/30 16:07:46;;;;;;;15.25;5.82;;;;;;;17.14;92.28;101478.34;10540065;28;20437;-75
2022/10/30 16:12:51;;;;;;;14.25;6.25;;;;;;;16.99;91.86;101491.50;10546673;28;20048;-77
2022/10/30 16:18:07;;;;;;;12.30;6.30;;;;;;;16.78;96.52;101498.03;10540904;28;20093;-74
2022/10/30 16:23:13;;;;;;;21.98;6.85;;;;;;;16.71;97.99;101497.53;10541095;28;20058;-72
2022/10/30 16:28:30;;;;;;;19.58;8.25;;;;;;;16.59;99.79;101499.09;10540450;28;20048;-76
2022/10/30 16:33:35;;;;;;;13.70;7.28;;;;;;;16.52;98.94;101506.50;10540385;28;20052;-74
2022/10/30 16:38:39;;;;;;;29.30;8.25;;;;;;;16.55;100.00;101502.84;10537931;28;20490;-72
2022/10/30 16:44:04;;;;;;;21.30;7.40;;;;;;;16.56;100.00;101499.28;10540990;28;20377;-75
2022/10/30 16:49:16;;;;;;;16.30;7.88;;;;;;;16.40;100.00;101507.19;10539663;28;20048;-72
2022/10/30 16:54:27;;;;;;;17.27;8.18;;;;;;;16.30;100.00;101518.28;10538472;28;20044;-72
2022/10/30 16:59:43;;;;;;;20.45;7.93;;;;;;;16.16;100.00;101503.25;10538247;28;20446;-73
2022/10/30 17:04:51;;;;;;;13.68;7.00;;;;;;;16.04;100.00;101519.69;10538247;28;20422;-73
2022/10/30 17:09:57;;;;;;;17.30;12.32;;;;;;;16.05;100.00;101531.94;10535691;28;20395;-74
2022/10/30 17:15:13;;;;;;;19.55;9.77;;;;;;;15.92;100.00;101532.59;10537134;28;20056;-74
2022/10/30 17:20:27;;;;;;;12.50;6.18;;;;;;;15.74;100.00;101515.97;10536998;28;20052;-76
2022/10/30 17:25:35;;;;;;;10.57;5.43;;;;;;;15.53;100.00;101525.91;10536862;28;20128;-74
2022/10/30 17:30:41;;;;;;;12.95;5.35;;;;;;;15.27;100.00;101536.84;10535170;28;20135;-74
2022/10/30 17:35:44;;;;;;;14.60;5.05;;;;;;;15.00;100.00;101545.19;10535785;28;20434;-73
2022/10/30 17:40:48;;;;;;;15.85;6.35;;;;;;;14.77;100.00;101565.56;10534184;28;20418;-76
2022/10/30 17:45:52;;;;;;;11.52;5.40;;;;;;;14.64;100.00;101553.91;10535637;28;20044;-74
2022/10/30 17:50:55;;;;;;;12.18;5.97;;;;;;;14.47;100.00;101560.00;10536210;28;20062;-73
2022/10/30 17:56:03;;;;;;;13.98;6.18;;;;;;;14.28;100.00;101581.84;10535388;28;20510;-74
2022/10/30 18:01:06;;;;;;;27.52;16.85;;;;;;;14.26;100.00;101589.78;10517789;28;20126;-74
2022/10/30 18:06:18;;;;;;;31.67;25.50;;;;;;;14.21;100.00;101591.78;10506907;28;20043;-76
2022/10/30 18:11:22;;;;;;;;;;;;;;;14.21;100.00;101604.06;10532430;28;20044;-76
2022/10/30 18:16:26;;;;;;;16.52;9.10;;;;;;;14.11;100.00;101611.50;10534723;28;20116;-75
2022/10/30 18:21:28;;;;;;;13.48;7.05;;;;;;;14.15;100.00;101621.78;10494320;28;20132;-74
2022/10/30 18:26:30;;;;;;;;;;;;;;;14.26;100.00;101638.81;10493244;28;20217;-74
2022/10/30 18:31:36;;;;;;;12.35;5.45;;;;;;;14.21;100.00;101643.44;10490259;28;19920;-75
2022/10/30 18:36:40;;;;;;;13.38;5.65;;;;;;;14.19;100.00;101643.50;10531261;28;20044;-74
2022/10/30 18:41:45;;;;;;;15.00;6.25;;;;;;;14.12;100.00;101636.81;10537817;28;20062;-74
2022/10/30 18:46:52;;;;;;;12.10;7.40;;;;;;;14.04;100.00;101635.38;10542123;28;20052;-75
2022/10/30 18:51:56;;;;;;;15.23;7.65;;;;;;;13.97;100.00;101633.09;10541643;28;20052;-78
2022/10/30 18:56:58;;;;;;;10.73;6.72;;;;;;;13.93;100.00;101644.66;10541951;28;20051;-74
2022/10/30 19:02:02;;;;;;;;;;;;;;;13.86;100.00;101658.03;10541786;28;20514;-75
2022/10/30 19:07:04;;;;;;;11.07;5.78;;;;;;;13.67;100.00;101657.13;10541874;28;19919;-74
2022/10/30 19:12:10;;;;;;;11.85;6.13;;;;;;;13.53;100.00;101650.69;10538551;28;20101;-75
2022/10/30 19:17:13;;;;;;;13.52;6.47;;;;;;;13.39;100.00;101652.09;10540952;28;20488;-74
2022/10/30 19:22:15;;;;;;;12.32;6.53;;;;;;;13.26;100.00;101653.53;10540151;28;20060;-75
2022/10/30 19:27:19;;;;;;;11.80;6.85;;;;;;;13.13;100.00;101645.28;10540228;28;20131;-75
2022/10/30 19:32:23;;;;;;;12.18;7.05;;;;;;;13.03;100.00;101650.06;10540901;28;20134;-76
2022/10/30 19:37:25;;;;;;;22.25;7.93;;;;;;;13.00;100.00;101658.91;10540241;28;20047;-73
2022/10/30 19:42:26;;;;;;;16.65;9.27;;;;;;;13.00;100.00;101673.75;10538116;28;20078;-75
2022/10/30 19:47:30;;;;;;;19.58;10.63;;;;;;;13.10;100.00;101682.97;10540240;28;20043;-74
2022/10/30 19:52:33;;;;;;;12.60;8.77;;;;;;;13.17;100.00;101680.13;10539052;28;20040;-73
2022/10/30 19:57:35;;;;;;;14.50;8.70;;;;;;;13.20;100.00;101680.81;10539962;28;20097;-73
2022/10/30 20:02:40;;;;;;;;;;;;;;;13.25;100.00;101685.91;10539833;28;20139;-73
2022/10/30 20:07:42;;;;;;;15.82;7.90;;;;;;;13.13;100.00;101674.97;10537600;28;19966;-77
2022/10/30 20:12:46;;;;;;;18.38;8.07;;;;;;;13.11;100.00;101671.56;10538151;28;20075;-74
2022/10/30 20:17:50;;;;;;;10.15;7.15;;;;;;;13.04;100.00;101664.03;10538606;28;20044;-75
2022/10/30 20:22:53;;;;;;;12.05;6.75;;;;;;;12.87;100.00;101682.09;10539030;28;20078;-74
2022/10/30 20:28:00;;;;;;;18.20;10.77;;;;;;;12.71;100.00;101684.47;10538863;28;20088;-75
2022/10/30 20:33:06;;;;;;;25.17;13.48;;;;;;;12.64;100.00;101679.50;10538612;28;20044;-74
2022/10/30 20:38:18;;;;;;;24.15;11.32;;;;;;;12.49;100.00;101684.44;10536465;28;20048;-74
2022/10/30 20:43:27;;;;;;;31.70;18.42;;;;;;;12.55;100.00;101694.66;10539324;28;20052;-75
2022/10/30 20:48:30;;;;;;;37.47;24.33;;;;;;;12.68;100.00;101702.03;10538817;28;20047;-73
2022/10/30 20:53:34;;;;;;;37.88;21.38;;;;;;;12.61;100.00;101702.28;10538223;28;20051;-76
2022/10/30 20:58:38;;;;;;;38.50;25.35;;;;;;;12.72;100.00;101721.97;10538513;28;20109;-75
2022/10/30 21:03:42;;;;;;;14.32;8.43;;;;;;;12.76;100.00;101718.31;10537569;28;20074;-74
2022/10/30 21:08:44;;;;;;;15.65;8.85;;;;;;;12.71;100.00;101726.38;10536201;28;20107;-75
2022/10/30 21:13:47;;;;;;;17.58;8.20;;;;;;;12.71;100.00;101733.38;10527862;28;20120;-75
2022/10/30 21:18:52;;;;;;;13.98;8.52;;;;;;;12.66;100.00;101746.63;10531697;28;20051;-76
2022/10/30 21:23:55;;;;;;;18.42;9.18;;;;;;;12.60;100.00;101741.63;10498361;28;20093;-75
2022/10/30 21:28:57;;;;;;;21.80;8.98;;;;;;;12.65;100.00;101751.91;10514171;28;20466;-74
2022/10/30 21:34:00;;;;;;;;;;;;;;;12.64;100.00;101748.44;10498463;28;20044;-76
2022/10/30 21:39:02;;;;;;;18.05;9.30;;;;;;;12.52;100.00;101756.75;10510934;28;19954;-64
2022/10/30 21:44:05;;;;;;;30.90;15.02;;;;;;;12.48;100.00;101756.00;10508426;28;20048;-66
2022/10/30 21:49:13;;;;;;;20.88;11.57;;;;;;;12.43;100.00;101756.19;10495773;28;20132;-65
2022/10/30 21:54:18;;;;;;;15.52;8.82;;;;;;;12.38;100.00;101760.72;10495090;28;20055;-66
2022/10/30 21:59:20;;;;;;;18.70;10.23;;;;;;;12.35;100.00;101769.53;10495243;28;20109;-66
2022/10/30 22:04:23;;;;;;;21.77;12.05;;;;;;;12.49;100.00;101773.44;10495324;28;20070;-65
2022/10/30 22:09:25;;;;;;;22.80;11.75;;;;;;;12.52;100.00;101781.16;10493006;28;20048;-65
2022/10/30 22:14:28;;;;;;;20.48;10.95;;;;;;;12.70;100.00;101777.00;10496900;28;20499;-65
2022/10/30 22:19:32;;;;;;;18.77;11.68;;;;;;;12.76;100.00;101773.31;10503793;28;20067;-67
2022/10/30 22:24:33;;;;;;;22.27;11.68;;;;;;;12.80;100.00;101782.78;10502902;28;20090;-65
2022/10/30 22:29:35;;;;;;;21.45;11.80;;;;;;;12.80;100.00;101774.91;10502381;28;20048;-66
2022/10/30 22:34:38;;;;;;;;;;;;;;;12.88;100.00;101774.66;10503146;28;20056;-65
2022/10/30 22:39:40;;;;;;;23.65;11.75;;;;;;;12.80;100.00;101776.69;10499810;28;20015;-69
2022/10/30 22:44:42;;;;;;;21.80;12.27;;;;;;;12.75;100.00;101795.19;10502092;28;20044;-66
2022/10/30 22:49:47;;;;;;;25.23;12.27;;;;;;;12.71;100.00;101794.47;10501724;28;20065;-66
2022/10/30 22:54:48;;;;;;;22.17;13.70;;;;;;;12.62;100.00;101786.91;10501996;28;20051;-67
2022/10/30 22:59:53;;;;;;;23.02;12.05;;;;;;;12.62;100.00;101785.16;10501563;28;20044;-65
2022/10/30 23:04:56;;;;;;;22.40;12.68;;;;;;;12.59;100.00;101789.66;10501215;28;20052;-65